Time;durP1;ratioP1;P1;durP2;ratioP2;P2;SDS_P1;SDS_P2;PMS_P1;PMS_P2;Temp;Humidity;BMP_temperature;BMP_pressure;BME280_temperature;BME280_humidity;BME280_pressure;Samples;Min_cycle;Max_cycle;Signal;HPM_P1;HPM_P2
2021/07/17 00:00:46;79424.00;0.26;138.04;0.00;0.00;0.62;;;;;22.30;6.90;;;;;;2578825;55;1263;-90
2021/07/17 00:03:13;545663.00;1.82;940.48;90932.00;0.30;157.92;;;;;22.20;6.00;;;;;;2576532;55;1959;-90
2021/07/17 00:05:40;205998.00;0.69;356.25;0.00;0.00;0.62;;;;;22.40;6.10;;;;;;2576489;55;1628;-90
2021/07/17 00:08:08;491953.00;1.64;847.97;42972.00;0.14;75.03;;;;;22.40;6.40;;;;;;2576644;55;1109;-89
2021/07/17 00:10:40;77238.00;0.26;134.27;0.00;0.00;0.62;;;;;22.30;7.30;;;;;;2576499;55;1006;-88
2021/07/17 00:13:08;242930.00;0.81;419.79;0.00;0.00;0.62;;;;;22.10;7.60;;;;;;2578839;55;999;-89
2021/07/17 00:15:36;29491.00;0.10;51.70;0.00;0.00;0.62;;;;;22.10;7.70;;;;;;2576580;55;1334;-89
2021/07/17 00:18:04;258437.00;0.86;446.46;0.00;0.00;0.62;;;;;22.10;7.70;;;;;;2576513;55;1541;-88
2021/07/17 00:20:32;150444.00;0.50;260.57;0.00;0.00;0.62;;;;;22.10;7.80;;;;;;2576640;55;1116;-90
2021/07/17 00:22:59;262517.00;0.88;453.48;30035.00;0.10;52.64;;;;;22.20;7.10;;;;;;2576213;55;1957;-90
2021/07/17 00:25:27;298562.00;1.00;515.45;0.00;0.00;0.62;;;;;21.90;7.50;;;;;;2578779;55;1417;-89
2021/07/17 00:27:55;144003.00;0.48;249.47;0.00;0.00;0.62;;;;;21.80;7.50;;;;;;2578764;55;972;-89
2021/07/17 00:30:22;110091.00;0.37;190.99;0.00;0.00;0.62;;;;;21.70;7.40;;;;;;2576595;55;1082;-90
2021/07/17 00:32:50;8735.00;0.03;15.76;0.00;0.00;0.62;;;;;21.80;7.50;;;;;;2578804;55;960;-90
2021/07/17 00:35:17;50891.00;0.17;88.73;0.00;0.00;0.62;;;;;22.00;7.20;;;;;;2578725;55;1336;-89
2021/07/17 00:37:45;288548.00;0.96;498.23;5444.00;0.02;10.06;;;;;22.20;6.00;;;;;;2578818;55;1020;-88
2021/07/17 00:40:14;146068.00;0.49;253.03;0.00;0.00;0.62;;;;;22.10;5.70;;;;;;2576626;55;1066;-89
2021/07/17 00:42:43;61279.00;0.20;106.69;0.00;0.00;0.62;;;;;21.90;6.30;;;;;;2578712;55;1941;-91
2021/07/17 00:45:12;7721.00;0.03;14.00;0.00;0.00;0.62;;;;;22.00;6.30;;;;;;2576558;55;1434;-88
2021/07/17 00:47:42;161631.00;0.54;279.85;0.00;0.00;0.62;;;;;22.00;5.70;;;;;;2577064;55;1059;-90
2021/07/17 00:50:11;143970.00;0.48;249.41;0.00;0.00;0.62;;;;;21.90;5.10;;;;;;2576475;55;1512;-91
2021/07/17 00:52:38;172108.00;0.57;297.90;41330.00;0.14;72.19;;;;;21.60;6.70;;;;;;2578764;55;978;-90
2021/07/17 00:55:08;149402.00;0.50;258.78;0.00;0.00;0.62;;;;;21.70;7.00;;;;;;2576557;55;1051;-89
2021/07/17 00:57:40;361609.00;1.21;623.81;34317.00;0.11;60.05;;;;;21.90;6.40;;;;;;2578768;55;912;-89
2021/07/17 01:00:12;240111.00;0.80;414.94;39704.00;0.13;69.38;;;;;21.80;6.30;;;;;;2578769;55;1024;-89
2021/07/17 01:02:41;435245.00;1.45;750.41;73117.00;0.24;127.15;;;;;22.00;6.00;;;;;;2578638;55;1905;-89
2021/07/17 01:05:09;109884.00;0.37;190.63;0.00;0.00;0.62;;;;;22.00;5.20;;;;;;2576627;55;1073;-90
2021/07/17 01:07:37;270235.00;0.90;466.75;0.00;0.00;0.62;;;;;22.00;5.50;;;;;;2576544;55;1632;-91
2021/07/17 01:10:07;493332.00;1.64;850.34;178696.00;0.60;309.24;;;;;21.90;5.00;;;;;;2576556;55;1026;-90
2021/07/17 01:12:36;377121.00;1.26;650.48;0.00;0.00;0.62;;;;;21.90;5.00;;;;;;2576459;55;1055;-89
2021/07/17 01:15:05;187486.00;0.62;324.38;0.00;0.00;0.62;;;;;21.70;6.30;;;;;;2576586;55;1090;-89
2021/07/17 01:17:34;439388.00;1.46;757.53;125646.00;0.42;217.82;;;;;21.90;6.10;;;;;;2578728;55;1344;-91
2021/07/17 01:20:02;222290.00;0.74;384.28;0.00;0.00;0.62;;;;;22.10;5.40;;;;;;2576737;55;1688;-89
2021/07/17 01:22:31;218051.00;0.73;376.99;0.00;0.00;0.62;;;;;21.90;5.50;;;;;;2578759;55;1011;-90
2021/07/17 01:24:58;58396.00;0.19;101.70;0.00;0.00;0.62;;;;;21.90;5.60;;;;;;2576530;55;1636;-91
2021/07/17 01:27:26;119628.00;0.40;207.44;0.00;0.00;0.62;;;;;21.90;5.90;;;;;;2578744;55;1243;-89
2021/07/17 01:29:53;301768.00;1.01;520.96;49351.00;0.16;86.06;;;;;21.70;6.30;;;;;;2578815;55;942;-89
2021/07/17 01:32:21;306845.00;1.02;529.69;0.00;0.00;0.62;;;;;21.70;6.80;;;;;;2576586;55;1094;-89
2021/07/17 01:34:49;190052.00;0.63;328.80;0.00;0.00;0.62;;;;;21.90;5.80;;;;;;2578815;55;934;-89
2021/07/17 01:37:16;162780.00;0.54;281.83;0.00;0.00;0.62;;;;;22.00;5.60;;;;;;2576235;55;1308;-91
2021/07/17 01:39:44;191027.00;0.64;330.48;0.00;0.00;0.62;;;;;22.10;4.90;;;;;;2578681;55;946;-89
2021/07/17 01:42:11;258475.00;0.86;446.53;20139.00;0.07;35.51;;;;;22.40;4.40;;;;;;2578748;55;941;-89
2021/07/17 01:44:42;81109.00;0.27;140.95;0.00;0.00;0.62;;;;;22.50;3.50;;;;;;2578616;55;1953;-90
2021/07/17 01:47:10;238469.00;0.79;412.12;0.00;0.00;0.62;;;;;22.60;3.20;;;;;;2576505;55;1310;-89
2021/07/17 01:49:37;104663.00;0.35;181.62;0.00;0.00;0.62;;;;;22.30;4.30;;;;;;2578752;55;929;-90
2021/07/17 01:52:05;237897.00;0.79;411.13;81460.00;0.27;141.56;;;;;22.30;4.20;;;;;;2578664;55;1647;-89
2021/07/17 01:54:33;152720.00;0.51;264.49;0.00;0.00;0.62;;;;;22.30;4.30;;;;;;2578729;55;932;-90
2021/07/17 01:57:03;180958.00;0.60;313.14;0.00;0.00;0.62;;;;;22.30;4.10;;;;;;2578682;55;1351;-90
2021/07/17 01:59:30;170227.00;0.57;294.66;0.00;0.00;0.62;;;;;22.30;4.20;;;;;;2578692;55;1534;-90
2021/07/17 02:01:57;168426.00;0.56;291.56;0.00;0.00;0.62;;;;;22.20;4.80;;;;;;2569654;55;939;-90
2021/07/17 02:04:24;364012.00;1.21;627.94;0.00;0.00;0.62;;;;;22.40;4.70;;;;;;2578719;55;1951;-91
2021/07/17 02:06:51;154641.00;0.52;267.81;0.00;0.00;0.62;;;;;22.40;4.30;;;;;;2576052;55;1406;-90
2021/07/17 02:09:18;120157.00;0.40;208.35;0.00;0.00;0.62;;;;;22.20;4.70;;;;;;2578731;55;920;-90
2021/07/17 02:11:45;202843.00;0.68;350.82;0.00;0.00;0.62;;;;;22.00;4.60;;;;;;2578730;55;979;-88
2021/07/17 02:14:13;128477.00;0.43;222.70;0.00;0.00;0.62;;;;;21.70;7.00;;;;;;2578725;55;988;-91
2021/07/17 02:16:41;294578.00;0.98;508.60;0.00;0.00;0.62;;;;;21.60;7.20;;;;;;2576349;55;1649;-89
2021/07/17 02:19:18;304338.00;1.01;525.38;17249.00;0.06;30.51;;;;;21.70;6.50;;;;;;2578680;55;966;-90
2021/07/17 02:21:47;137758.00;0.46;238.71;572.00;0.00;1.61;;;;;21.80;6.00;;;;;;2576457;55;1643;-89
2021/07/17 02:24:15;507788.00;1.69;875.23;93241.00;0.31;161.90;;;;;21.80;6.30;;;;;;2578690;55;1894;-88
2021/07/17 02:26:43;119965.00;0.40;208.02;0.00;0.00;0.62;;;;;21.60;6.70;;;;;;2576513;55;1363;-87
2021/07/17 02:29:10;175985.00;0.59;304.58;1025.00;0.00;2.40;;;;;21.50;6.90;;;;;;2567845;55;988;-88
2021/07/17 02:31:41;160975.00;0.54;278.72;0.00;0.00;0.62;;;;;21.60;5.90;;;;;;2567919;55;909;-87
2021/07/17 02:34:10;114375.00;0.38;198.38;13458.00;0.04;23.94;;;;;21.50;6.70;;;;;;2559241;55;1000;-87
2021/07/17 02:36:38;164801.00;0.55;285.31;0.00;0.00;0.62;;;;;21.40;7.00;;;;;;2557535;56;1374;-90
2021/07/17 02:39:07;226372.00;0.75;391.31;0.00;0.00;0.62;;;;;21.40;7.20;;;;;;2542365;56;1006;-88
2021/07/17 02:41:34;229017.00;0.76;395.86;0.00;0.00;0.62;;;;;21.50;7.20;;;;;;2538040;56;953;-88
2021/07/17 02:44:02;163898.00;0.55;283.76;0.00;0.00;0.62;;;;;21.10;7.50;;;;;;2537283;56;1962;-87
2021/07/17 02:46:29;273312.00;0.91;472.04;0.00;0.00;0.62;;;;;21.20;7.80;;;;;;2538134;56;1312;-88
2021/07/17 02:48:57;199090.00;0.66;344.36;85403.00;0.28;148.37;;;;;21.10;7.30;;;;;;2532221;56;985;-88
2021/07/17 02:51:24;267513.00;0.89;462.07;0.00;0.00;0.62;;;;;21.20;7.10;;;;;;2528208;56;989;-87
2021/07/17 02:53:51;469110.00;1.56;808.66;102488.00;0.34;177.87;;;;;21.30;7.10;;;;;;2533932;56;932;-88
2021/07/17 02:56:19;258736.00;0.86;446.97;74146.00;0.25;128.92;;;;;21.50;6.90;;;;;;2543745;56;1371;-87
2021/07/17 02:58:46;363313.00;1.21;626.74;52040.00;0.17;90.71;;;;;21.70;6.30;;;;;;2537553;56;933;-89
2021/07/17 03:01:13;200838.00;0.67;347.37;45788.00;0.15;79.90;;;;;21.80;5.50;;;;;;2536224;56;1450;-90
2021/07/17 03:03:40;124850.00;0.42;216.45;0.00;0.00;0.62;;;;;21.80;5.20;;;;;;2542540;56;1974;-89
2021/07/17 03:06:09;265943.00;0.89;459.37;73623.00;0.25;128.02;;;;;21.70;5.70;;;;;;2543058;56;1276;-88
2021/07/17 03:08:36;483863.00;1.61;834.05;0.00;0.00;0.62;;;;;21.40;6.40;;;;;;2552587;56;944;-88
2021/07/17 03:11:03;224398.00;0.75;387.91;172.00;0.00;0.92;;;;;21.40;7.10;;;;;;2552633;56;968;-87
2021/07/17 03:13:31;218758.00;0.73;378.21;23071.00;0.08;40.59;;;;;21.10;7.80;;;;;;2553884;56;1006;-89
2021/07/17 03:15:58;148675.00;0.50;257.52;0.00;0.00;0.62;;;;;21.10;7.60;;;;;;2564114;55;1325;-87
2021/07/17 03:18:25;220013.00;0.73;380.37;0.00;0.00;0.62;;;;;20.90;8.50;;;;;;2568883;55;992;-88
2021/07/17 03:20:52;167148.00;0.56;289.35;0.00;0.00;0.62;;;;;20.80;8.40;;;;;;2557780;56;981;-89
2021/07/17 03:23:20;209934.00;0.70;363.02;30938.00;0.10;54.21;;;;;20.80;9.20;;;;;;2557848;56;1903;-88
2021/07/17 03:25:47;59600.00;0.20;103.79;0.00;0.00;0.62;;;;;20.80;9.20;;;;;;2557828;56;1373;-89
2021/07/17 03:28:15;420145.00;1.40;724.44;89050.00;0.30;154.67;;;;;20.70;9.20;;;;;;2552707;56;1063;-88
2021/07/17 03:30:42;202437.00;0.67;350.12;23960.00;0.08;42.13;;;;;20.70;9.60;;;;;;2550524;56;1025;-87
2021/07/17 03:33:09;235704.00;0.79;407.36;0.00;0.00;0.62;;;;;20.70;9.00;;;;;;2549959;56;1123;-87
2021/07/17 03:35:36;278928.00;0.93;481.69;18791.00;0.06;33.18;;;;;20.40;10.20;;;;;;2552694;56;1345;-87
2021/07/17 03:38:03;221322.00;0.74;382.62;0.00;0.00;0.62;;;;;20.40;10.20;;;;;;2553288;56;1204;-88
2021/07/17 03:40:31;170893.00;0.57;295.80;0.00;0.00;0.62;;;;;20.50;9.50;;;;;;2557733;56;983;-87
2021/07/17 03:42:58;222822.00;0.74;385.20;0.00;0.00;0.62;;;;;20.50;9.90;;;;;;2557802;56;1050;-88
2021/07/17 03:45:26;372707.00;1.24;642.89;17073.00;0.06;30.20;;;;;20.70;9.20;;;;;;2557255;55;1936;-87
2021/07/17 03:47:52;249738.00;0.83;431.50;0.00;0.00;0.62;;;;;20.70;8.60;;;;;;2563499;56;970;-88
2021/07/17 03:50:21;204018.00;0.68;352.84;0.00;0.00;0.62;;;;;20.80;8.40;;;;;;2567824;56;1136;-86
2021/07/17 03:52:48;154697.00;0.52;267.90;0.00;0.00;0.62;;;;;20.50;9.20;;;;;;2559393;56;1139;-87
2021/07/17 03:55:17;31202.00;0.10;54.66;0.00;0.00;0.62;;;;;20.60;8.80;;;;;;2562703;56;1261;-87
2021/07/17 03:57:45;37731.00;0.13;65.96;0.00;0.00;0.62;;;;;20.50;9.60;;;;;;2557755;56;927;-88
2021/07/17 04:00:14;176912.00;0.59;306.17;0.00;0.00;0.62;;;;;20.50;9.70;;;;;;2557742;56;950;-86
2021/07/17 04:02:42;278240.00;0.93;480.51;53892.00;0.18;93.92;;;;;20.60;8.40;;;;;;2542448;56;943;-87
2021/07/17 04:05:12;192844.00;0.64;333.60;26219.00;0.09;46.04;;;;;20.80;8.30;;;;;;2538855;56;1957;-87
2021/07/17 04:07:40;189680.00;0.63;328.16;45089.00;0.15;78.69;;;;;21.00;7.90;;;;;;2532455;56;905;-86
2021/07/17 04:10:10;106649.00;0.36;185.05;0.00;0.00;0.62;;;;;21.10;7.70;;;;;;2532529;56;945;-87
2021/07/17 04:12:37;364282.00;1.21;628.41;76135.00;0.25;132.36;;;;;21.10;7.00;;;;;;2538248;56;998;-87
2021/07/17 04:15:07;207317.00;0.69;358.52;85184.00;0.28;147.99;;;;;20.80;8.00;;;;;;2543364;56;1044;-88
2021/07/17 04:17:34;251827.00;0.84;435.09;10914.00;0.04;19.53;;;;;20.70;8.20;;;;;;2537322;56;1482;-86
2021/07/17 04:20:02;154948.00;0.52;268.33;0.00;0.00;0.62;;;;;20.50;8.90;;;;;;2523313;56;1109;-85
2021/07/17 04:22:29;209763.00;0.70;362.73;33399.00;0.11;58.47;;;;;20.50;9.00;;;;;;2527873;56;1140;-87
2021/07/17 04:24:56;157502.00;0.53;272.74;0.00;0.00;0.62;;;;;20.40;9.60;;;;;;2537374;56;1962;-86
2021/07/17 04:27:22;297275.00;0.99;513.24;21783.00;0.07;38.36;;;;;20.50;9.20;;;;;;2537421;56;1435;-86
2021/07/17 04:29:49;108847.00;0.36;188.84;0.00;0.00;0.62;;;;;20.60;8.70;;;;;;2538674;56;1049;-87
2021/07/17 04:32:18;227897.00;0.76;393.93;0.00;0.00;0.62;;;;;20.60;7.90;;;;;;2547653;56;1034;-89
2021/07/17 04:34:45;179393.00;0.60;310.44;0.00;0.00;0.62;;;;;20.70;8.20;;;;;;2540286;56;932;-87
2021/07/17 04:37:15;230523.00;0.77;398.45;0.00;0.00;0.62;;;;;20.50;8.50;;;;;;2543023;56;1376;-87
2021/07/17 04:39:42;320912.00;1.07;553.87;12614.00;0.04;22.48;;;;;20.50;9.10;;;;;;2552518;56;1067;-87
2021/07/17 04:42:10;17262.00;0.06;30.53;0.00;0.00;0.62;;;;;20.50;9.30;;;;;;2545388;56;1004;-88
2021/07/17 04:44:37;152335.00;0.51;263.83;10144.00;0.03;18.20;;;;;20.70;8.90;;;;;;2554191;56;1944;-88
2021/07/17 04:47:04;289348.00;0.96;499.61;0.00;0.00;0.62;;;;;20.80;7.80;;;;;;2550466;56;1361;-89
2021/07/17 04:49:33;260530.00;0.87;450.06;0.00;0.00;0.62;;;;;20.80;8.50;;;;;;2552589;56;991;-88
2021/07/17 04:52:00;235016.00;0.78;406.18;32596.00;0.11;57.08;;;;;20.90;6.90;;;;;;2552685;56;989;-87
2021/07/17 04:54:27;232879.00;0.78;402.50;0.00;0.00;0.62;;;;;20.80;7.00;;;;;;2553234;56;973;-87
2021/07/17 04:56:54;90182.00;0.30;156.62;20834.00;0.07;36.71;;;;;20.90;7.40;;;;;;2555610;56;1340;-88
2021/07/17 04:59:21;43360.00;0.14;75.70;0.00;0.00;0.62;;;;;20.90;7.70;;;;;;2549180;56;978;-88
2021/07/17 05:01:48;158094.00;0.53;273.76;0.00;0.00;0.62;;;;;21.00;7.00;;;;;;2557680;56;938;-88
2021/07/17 05:04:15;283539.00;0.95;489.62;6402.00;0.02;11.72;;;;;20.90;6.90;;;;;;2559443;56;1949;-86
2021/07/17 05:06:44;265758.00;0.89;459.05;10124.00;0.03;18.16;;;;;20.80;6.90;;;;;;2573036;55;1628;-88
2021/07/17 05:09:11;312945.00;1.04;540.17;0.00;0.00;0.62;;;;;20.60;7.40;;;;;;2573113;55;939;-87
2021/07/17 05:11:39;258673.00;0.86;446.87;31783.00;0.11;55.67;;;;;20.50;8.40;;;;;;2568991;55;1028;-87
2021/07/17 05:14:06;0.00;0.00;0.62;0.00;0.00;0.62;;;;;20.70;8.20;;;;;;2567899;56;971;-88
2021/07/17 05:16:33;149390.00;0.50;258.76;0.00;0.00;0.62;;;;;21.10;7.00;;;;;;2568011;56;1304;-88
2021/07/17 05:19:00;204883.00;0.68;354.33;11953.00;0.04;21.33;;;;;21.20;6.60;;;;;;2557632;56;930;-88
2021/07/17 05:21:27;341326.00;1.14;588.95;13862.00;0.05;24.64;;;;;20.90;8.80;;;;;;2547379;56;981;-86
2021/07/17 05:23:55;165437.00;0.55;286.41;0.00;0.00;0.62;;;;;20.70;7.80;;;;;;2542418;56;1969;-88
2021/07/17 05:26:23;382881.00;1.28;660.38;71782.00;0.24;124.84;;;;;20.60;8.30;;;;;;2542368;56;1371;-88
2021/07/17 05:28:49;183762.00;0.61;317.97;0.00;0.00;0.62;;;;;20.90;8.40;;;;;;2541796;56;962;-87
2021/07/17 05:31:18;219242.00;0.73;379.04;0.00;0.00;0.62;;;;;20.90;7.40;;;;;;2537677;56;1150;-89
2021/07/17 05:33:45;263695.00;0.88;455.50;0.00;0.00;0.62;;;;;20.90;7.00;;;;;;2542337;56;1043;-87
2021/07/17 05:38:40;227708.00;0.76;393.61;0.00;0.00;0.62;;;;;20.70;8.70;;;;;;2571306;56;571;-87
2021/07/17 05:41:08;491343.00;1.64;846.92;39728.00;0.13;69.42;;;;;21.00;7.20;;;;;;2573479;55;1109;-86
2021/07/17 05:43:35;165047.00;0.55;285.73;2619.00;0.01;5.16;;;;;21.00;7.00;;;;;;2567734;56;1079;-86
2021/07/17 05:46:03;280542.00;0.94;484.47;0.00;0.00;0.62;;;;;20.80;7.70;;;;;;2567883;56;1989;-87
2021/07/17 05:48:30;143640.00;0.48;248.85;13066.00;0.04;23.26;;;;;20.80;7.80;;;;;;2552404;56;970;-87
2021/07/17 05:50:57;381794.00;1.27;658.51;40738.00;0.14;71.17;;;;;20.90;8.20;;;;;;2544016;56;973;-88
2021/07/17 05:53:24;167272.00;0.56;289.57;15042.00;0.05;26.68;;;;;21.10;7.10;;;;;;2552592;56;989;-90
2021/07/17 05:55:51;186398.00;0.62;322.51;0.00;0.00;0.62;;;;;21.20;6.40;;;;;;2547347;56;1373;-88
2021/07/17 05:58:20;150209.00;0.50;260.17;0.00;0.00;0.62;;;;;21.30;6.70;;;;;;2547573;56;906;-88
2021/07/17 06:00:48;182238.00;0.61;315.34;12534.00;0.04;22.34;;;;;21.30;6.40;;;;;;2543650;56;942;-89
2021/07/17 06:03:15;550543.00;1.84;948.90;127746.00;0.43;221.44;;;;;21.30;6.00;;;;;;2547409;56;986;-88
2021/07/17 06:05:42;181562.00;0.61;314.18;634.00;0.00;1.72;;;;;21.40;5.70;;;;;;2545749;56;1952;-86
2021/07/17 06:08:10;16660.00;0.06;29.49;0.00;0.00;0.62;;;;;21.30;5.90;;;;;;2542244;56;927;-87
2021/07/17 06:10:37;206950.00;0.69;357.89;0.00;0.00;0.62;;;;;21.40;5.90;;;;;;2542331;56;1078;-87
2021/07/17 06:13:05;200805.00;0.67;347.31;0.00;0.00;0.62;;;;;21.30;6.80;;;;;;2543701;56;1044;-88
2021/07/17 06:15:33;157517.00;0.53;272.76;0.00;0.00;0.62;;;;;21.30;6.40;;;;;;2557474;56;1392;-89
2021/07/17 06:18:01;168669.00;0.56;291.97;0.00;0.00;0.62;;;;;21.40;6.00;;;;;;2558289;55;997;-89
2021/07/17 06:20:28;46448.00;0.15;81.04;0.00;0.00;0.62;;;;;21.50;5.80;;;;;;2562805;55;994;-88
2021/07/17 06:22:55;183878.00;0.61;318.17;0.00;0.00;0.62;;;;;21.60;5.60;;;;;;2562811;56;1209;-89
2021/07/17 06:25:22;146472.00;0.49;253.73;0.00;0.00;0.62;;;;;21.80;4.60;;;;;;2560448;56;1941;-87
2021/07/17 06:27:49;345139.00;1.15;595.51;91081.00;0.30;158.17;;;;;21.80;4.70;;;;;;2562662;56;968;-87
2021/07/17 06:30:17;182626.00;0.61;316.01;0.00;0.00;0.62;;;;;21.90;4.90;;;;;;2560403;56;1706;-87
2021/07/17 06:32:46;519629.00;1.73;895.63;31453.00;0.10;55.10;;;;;21.90;4.60;;;;;;2553125;56;958;-86
2021/07/17 06:35:16;198533.00;0.66;343.40;0.00;0.00;0.62;;;;;21.90;4.10;;;;;;2557708;56;1329;-88
2021/07/17 06:37:43;173936.00;0.58;301.05;0.00;0.00;0.62;;;;;22.00;4.10;;;;;;2563818;56;1074;-87
2021/07/17 06:40:12;191805.00;0.64;331.82;0.00;0.00;0.62;;;;;22.10;3.80;;;;;;2565567;56;1083;-87
2021/07/17 06:42:43;0.00;0.00;0.62;0.00;0.00;0.62;;;;;22.00;3.70;;;;;;2567875;56;1101;-87
2021/07/17 06:45:18;114509.00;0.38;198.61;12354.00;0.04;22.03;;;;;21.80;4.80;;;;;;2557400;56;1962;-87
2021/07/17 06:47:48;205578.00;0.69;355.52;0.00;0.00;0.62;;;;;21.80;5.50;;;;;;2555067;56;1635;-88
2021/07/17 06:50:18;26905.00;0.09;47.23;0.00;0.00;0.62;;;;;21.50;5.30;;;;;;2556511;56;1635;-84
2021/07/17 06:52:45;165458.00;0.55;286.44;0.00;0.00;0.62;;;;;21.40;5.10;;;;;;2565807;56;1152;-87
2021/07/17 06:55:13;316006.00;1.05;545.43;1600.00;0.01;3.39;;;;;21.60;4.70;;;;;;2557500;56;1374;-89
2021/07/17 06:57:42;172732.00;0.58;298.97;0.00;0.00;0.62;;;;;21.50;5.50;;;;;;2552176;56;1074;-85
2021/07/17 07:00:11;318316.00;1.06;549.40;36406.00;0.12;63.67;;;;;21.70;4.70;;;;;;2547271;56;995;-86
2021/07/17 07:02:39;261810.00;0.87;452.26;0.00;0.00;0.62;;;;;21.30;5.50;;;;;;2548614;56;1063;-87
2021/07/17 07:10:13;95179.00;0.32;165.25;0.00;0.00;0.62;;;;;21.50;5.90;;;;;;2576337;55;792;-88
2021/07/17 07:12:40;307435.00;1.02;530.70;73976.00;0.25;128.63;;;;;21.70;5.80;;;;;;2576457;55;1015;-88
2021/07/17 07:15:10;670146.00;2.23;1155.51;145303.00;0.48;251.71;;;;;21.80;4.90;;;;;;2578558;55;906;-85
2021/07/17 07:17:38;381418.00;1.27;657.86;116417.00;0.39;201.90;;;;;22.00;4.00;;;;;;2567295;55;956;-86
2021/07/17 07:32:34;397304.00;1.32;685.17;129479.00;0.43;224.43;;;;;21.90;5.10;;;;;;2577074;56;397;-88
2021/07/17 07:37:29;521437.00;1.74;898.74;121917.00;0.41;211.39;;;;;22.40;3.40;;;;;;2577097;55;1149;-88
2021/07/17 08:02:13;260375.00;0.87;449.79;77431.00;0.26;134.60;;;;;22.40;4.40;;;;;;2577213;56;433;-89
2021/07/17 08:04:41;479757.00;1.60;826.98;69145.00;0.23;120.28;;;;;22.50;4.10;;;;;;2578583;55;1945;-88
2021/07/17 08:41:59;158690.00;0.53;274.78;48345.00;0.16;84.32;;;;;21.90;5.90;;;;;;2576551;55;723;-89
2021/07/17 09:07:08;83720.00;0.28;145.46;0.00;0.00;0.62;;;;;22.20;4.30;;;;;;2576603;55;1265;-89
2021/07/17 09:39:53;135709.00;0.45;235.17;14892.00;0.05;26.42;;;;;22.90;3.50;;;;;;2577252;56;406;-89
2021/07/17 09:47:27;208694.00;0.70;360.89;45784.00;0.15;79.89;;;;;23.00;3.20;;;;;;2577119;56;1266;-90
2021/07/17 09:55:06;87645.00;0.29;152.24;0.00;0.00;0.62;;;;;22.70;2.90;;;;;;2572010;56;438;-89
2021/07/17 09:57:35;193146.00;0.64;334.12;0.00;0.00;0.62;;;;;21.90;6.00;;;;;;2574172;56;1360;-87
2021/07/17 10:13:00;323017.00;1.08;557.48;109165.00;0.36;189.39;;;;;23.20;2.60;;;;;;2576396;55;592;-90
2021/07/17 10:25:39;211763.00;0.71;366.17;35271.00;0.12;61.71;;;;;23.50;1.00;;;;;;2571936;56;1897;-90
2021/07/17 10:28:09;252632.00;0.84;436.48;31898.00;0.11;55.87;;;;;23.70;1.00;;;;;;2563354;56;882;-91
2021/07/17 10:30:36;106963.00;0.36;185.59;0.00;0.00;0.62;;;;;23.90;1.00;;;;;;2562708;56;988;-88
2021/07/17 10:33:04;203418.00;0.68;351.81;0.00;0.00;0.62;;;;;24.00;1.00;;;;;;2547361;56;975;-89
2021/07/17 10:35:31;247224.00;0.82;427.18;0.00;0.00;0.62;;;;;24.00;1.00;;;;;;2537108;56;1378;-90
2021/07/17 10:38:04;282568.00;0.94;487.95;43567.00;0.15;76.06;;;;;24.20;1.00;;;;;;2537248;56;996;-91
2021/07/17 11:10:43;481750.00;1.61;830.41;80725.00;0.27;140.29;;;;;24.50;1.00;;;;;;2562512;56;1000;-88
2021/07/17 11:13:10;437010.00;1.46;753.44;86912.00;0.29;150.98;;;;;24.60;1.00;;;;;;2563290;56;916;-91
2021/07/17 11:15:42;711629.00;2.37;1227.41;26758.00;0.09;46.97;;;;;24.50;1.00;;;;;;2557649;56;1308;-88
2021/07/17 11:18:23;320943.00;1.07;553.92;0.00;0.00;0.62;;;;;24.50;1.00;;;;;;2552535;56;967;-91
2021/07/17 11:25:55;315475.00;1.05;544.52;0.00;0.00;0.62;;;;;24.40;1.90;;;;;;2574678;55;1869;-88
2021/07/17 11:29:03;503282.00;1.68;867.47;19491.00;0.06;34.39;;;;;24.50;1.90;;;;;;2578660;55;914;-89
2021/07/17 11:39:06;405333.00;1.35;698.97;74015.00;0.25;128.70;;;;;25.00;1.00;;;;;;2581863;55;565;-90
2021/07/17 11:41:35;372775.00;1.24;643.01;76062.00;0.25;132.23;;;;;24.90;1.00;;;;;;2573093;55;953;-90
2021/07/17 11:44:02;485382.00;1.62;836.66;59975.00;0.20;104.43;;;;;25.00;1.00;;;;;;2573137;55;953;-90
2021/07/17 11:46:30;560212.00;1.87;965.57;68377.00;0.23;118.96;;;;;25.10;1.00;;;;;;2572986;55;1960;-89
2021/07/17 11:49:01;332415.00;1.11;573.64;65552.00;0.22;114.07;;;;;25.20;1.00;;;;;;2568589;55;1003;-90
2021/07/17 11:51:28;366798.00;1.22;632.73;71536.00;0.24;124.41;;;;;25.30;1.00;;;;;;2562646;56;986;-89
2021/07/17 11:53:57;423221.00;1.41;729.73;57514.00;0.19;100.18;;;;;25.10;1.00;;;;;;2550068;56;1033;-89
2021/07/17 11:56:24;457556.00;1.53;788.78;66476.00;0.22;115.67;;;;;24.80;1.00;;;;;;2562805;56;1375;-90
2021/07/17 11:59:13;512591.00;1.71;883.50;103494.00;0.34;179.60;;;;;24.90;1.00;;;;;;2562809;56;981;-91
2021/07/17 12:01:40;534733.00;1.78;921.65;71732.00;0.24;124.75;;;;;25.10;1.00;;;;;;2562908;56;1070;-90
2021/07/17 12:04:07;525273.00;1.75;905.35;59234.00;0.20;103.15;;;;;25.20;1.00;;;;;;2555038;56;918;-88
2021/07/17 12:06:34;892756.00;2.98;1543.40;164154.00;0.55;284.20;;;;;25.30;1.00;;;;;;2567927;56;1950;-88
2021/07/17 12:09:09;394587.00;1.32;680.50;63674.00;0.21;110.83;;;;;25.30;1.00;;;;;;2572176;55;939;-90
2021/07/17 12:11:38;557253.00;1.86;960.46;70004.00;0.23;121.77;;;;;25.30;1.00;;;;;;2572946;55;982;-90
2021/07/17 12:14:19;312796.00;1.04;539.92;72415.00;0.24;125.93;;;;;25.40;1.00;;;;;;2568750;55;966;-88
2021/07/17 12:16:47;315326.00;1.05;544.26;70802.00;0.24;123.15;;;;;25.40;1.00;;;;;;2564509;55;1355;-88
2021/07/17 12:19:19;383571.00;1.28;661.56;65161.00;0.22;113.40;;;;;25.60;1.00;;;;;;2573032;55;1089;-89
2021/07/17 12:21:45;247129.00;0.82;427.01;67632.00;0.23;117.67;;;;;25.50;1.00;;;;;;2573172;55;966;-90
2021/07/17 12:24:12;213632.00;0.71;369.39;0.00;0.00;0.62;;;;;25.30;1.00;;;;;;2560190;55;962;-89
2021/07/17 12:26:39;139200.00;0.46;241.19;0.00;0.00;0.62;;;;;25.30;1.00;;;;;;2572981;55;1936;-89
2021/07/17 12:29:07;402060.00;1.34;693.35;125972.00;0.42;218.38;;;;;25.10;1.00;;;;;;2570366;55;920;-90
2021/07/17 12:31:35;193830.00;0.65;335.30;0.00;0.00;0.62;;;;;25.50;1.00;;;;;;2578235;55;916;-89
2021/07/17 12:34:10;395397.00;1.32;681.89;39539.00;0.13;69.09;;;;;25.70;1.00;;;;;;2565288;55;930;-89
2021/07/17 12:36:42;285019.00;0.95;492.17;60809.00;0.20;105.88;;;;;25.50;1.00;;;;;;2578263;55;1431;-88
2021/07/17 12:39:09;261282.00;0.87;451.35;0.00;0.00;0.62;;;;;25.50;1.00;;;;;;2569695;55;955;-89
2021/07/17 12:41:37;224226.00;0.75;387.61;17780.00;0.06;31.43;;;;;25.40;1.00;;;;;;2569682;55;978;-90
2021/07/17 12:44:06;0.00;0.00;0.62;0.00;0.00;0.62;;;;;25.70;1.00;;;;;;2578326;55;985;-88
2021/07/17 12:46:37;57834.00;0.19;100.73;0.00;0.00;0.62;;;;;25.70;1.00;;;;;;2579500;55;1890;-87
2021/07/17 12:49:06;165659.00;0.55;286.79;0.00;0.00;0.62;;;;;25.70;1.00;;;;;;2574907;55;929;-89
2021/07/17 12:51:35;131173.00;0.44;227.35;0.00;0.00;0.62;;;;;25.60;1.00;;;;;;2583999;55;933;-89
2021/07/17 12:54:04;166540.00;0.56;288.31;0.00;0.00;0.62;;;;;25.50;1.00;;;;;;2584012;55;917;-90
2021/07/17 12:56:37;200839.00;0.67;347.37;0.00;0.00;0.62;;;;;25.20;1.00;;;;;;2583878;55;1390;-89
2021/07/17 12:59:09;16425.00;0.05;29.08;0.00;0.00;0.62;;;;;25.30;1.00;;;;;;2572882;55;943;-90
2021/07/17 13:01:41;59411.00;0.20;103.46;0.00;0.00;0.62;;;;;25.30;1.00;;;;;;2567715;56;921;-89
2021/07/17 13:09:05;39471.00;0.13;68.97;0.00;0.00;0.62;;;;;25.40;1.00;;;;;;2571367;56;563;-89
2021/07/17 13:11:32;115824.00;0.39;200.88;0.00;0.00;0.62;;;;;25.40;1.00;;;;;;2573535;55;927;-89
2021/07/17 13:14:02;171835.00;0.57;297.43;0.00;0.00;0.62;;;;;25.40;1.00;;;;;;2573491;55;974;-89
2021/07/17 13:16:35;100962.00;0.34;175.23;15400.00;0.05;27.30;;;;;25.50;1.00;;;;;;2567800;56;1292;-90
2021/07/17 13:19:07;218791.00;0.73;378.26;0.00;0.00;0.62;;;;;25.40;1.00;;;;;;2552358;56;991;-89
2021/07/17 13:21:37;151390.00;0.50;262.20;0.00;0.00;0.62;;;;;25.60;1.00;;;;;;2552552;56;1075;-88
2021/07/17 13:24:05;147325.00;0.49;255.20;0.00;0.00;0.62;;;;;25.50;1.00;;;;;;2548272;56;1008;-89
2021/07/17 13:26:34;181821.00;0.61;314.63;0.00;0.00;0.62;;;;;25.40;1.00;;;;;;2552613;56;1953;-89
2021/07/17 13:31:32;332041.00;1.11;572.99;49029.00;0.16;85.51;;;;;25.60;1.00;;;;;;2576641;55;539;-89